createdAt,value
2024-05-09T00:00:02.128Z,39.03
2024-05-09T00:01:02.185Z,39.04
2024-05-09T00:02:02.223Z,39.04
2024-05-09T00:03:02.173Z,39.04
2024-05-09T00:04:02.218Z,39.03
2024-05-09T00:05:02.241Z,39.04
2024-05-09T00:06:02.316Z,39.03
2024-05-09T00:07:02.171Z,39.03
2024-05-09T00:08:02.188Z,39.04
2024-05-09T00:09:02.163Z,39.04
2024-05-09T00:10:02.227Z,39.03
2024-05-09T00:11:02.218Z,39.03
2024-05-09T00:12:02.292Z,39.00
2024-05-09T00:13:02.130Z,39.02
2024-05-09T00:14:02.192Z,39.03
2024-05-09T00:15:02.126Z,39.02
2024-05-09T00:16:02.149Z,39.04
2024-05-09T00:17:02.228Z,39.02
2024-05-09T00:18:02.522Z,39.04
2024-05-09T00:19:02.232Z,39.02
2024-05-09T00:20:02.209Z,39.02
2024-05-09T00:21:02.287Z,39.01
2024-05-09T00:22:02.143Z,39.01
2024-05-09T00:23:02.211Z,39.03
2024-05-09T00:24:02.168Z,39.02
2024-05-09T00:25:02.133Z,39.01
2024-05-09T00:26:02.247Z,39.01
2024-05-09T00:27:02.110Z,39.02
2024-05-09T00:28:02.150Z,38.97
2024-05-09T00:29:02.172Z,39.02
2024-05-09T00:30:04.014Z,39.03
2024-05-09T00:31:02.138Z,39.00
2024-05-09T00:32:02.281Z,39.01
2024-05-09T00:33:02.337Z,39.01
2024-05-09T00:34:02.279Z,39.02
2024-05-09T00:35:02.223Z,38.99
2024-05-09T00:36:02.187Z,39.00
2024-05-09T00:37:02.154Z,39.02
2024-05-09T00:38:02.369Z,38.98
2024-05-09T00:39:02.199Z,39.00
2024-05-09T00:40:02.241Z,38.98
2024-05-09T00:41:02.313Z,39.00
2024-05-09T00:42:02.310Z,39.00
2024-05-09T00:43:02.397Z,38.99
2024-05-09T00:44:02.531Z,39.00
2024-05-09T00:45:02.456Z,39.00
2024-05-09T00:46:02.553Z,39.01
2024-05-09T00:47:02.622Z,39.00
2024-05-09T00:48:03.201Z,39.00
2024-05-09T00:49:02.745Z,39.00
2024-05-09T00:50:04.142Z,39.00
2024-05-09T00:51:02.793Z,39.00
2024-05-09T00:52:02.780Z,38.97
2024-05-09T00:53:02.903Z,38.98
2024-05-09T00:54:02.882Z,38.98
2024-05-09T00:55:02.925Z,38.99
2024-05-09T00:56:03.083Z,39.00
2024-05-09T00:57:02.999Z,38.98
2024-05-09T00:58:03.047Z,39.00
2024-05-09T00:59:03.163Z,38.98
2024-05-09T01:00:04.749Z,38.99
2024-05-09T01:01:03.223Z,38.96
2024-05-09T01:02:03.275Z,38.98
2024-05-09T01:03:03.493Z,38.99
2024-05-09T01:04:03.267Z,38.99
2024-05-09T01:05:03.219Z,39.00
2024-05-09T01:06:03.231Z,38.97
2024-05-09T01:07:03.113Z,38.95
2024-05-09T01:08:03.399Z,38.97
2024-05-09T01:09:03.188Z,38.95
2024-05-09T01:10:04.225Z,38.95
2024-05-09T01:11:03.229Z,38.96
2024-05-09T01:12:03.300Z,38.97
2024-05-09T01:13:03.159Z,38.96
2024-05-09T01:14:03.302Z,38.93
2024-05-09T01:15:03.218Z,38.97
2024-05-09T01:16:03.258Z,38.95
2024-05-09T01:17:03.362Z,38.95
2024-05-09T01:18:03.539Z,38.97
2024-05-09T01:19:03.538Z,38.96
2024-05-09T01:20:06.234Z,38.93
2024-05-09T01:21:03.512Z,38.94
2024-05-09T01:22:03.557Z,38.94
2024-05-09T01:23:03.459Z,38.96
2024-05-09T01:24:03.431Z,38.93
2024-05-09T01:25:03.485Z,38.94
2024-05-09T01:26:03.468Z,38.95
2024-05-09T01:27:03.488Z,38.94
2024-05-09T01:28:03.598Z,38.95
2024-05-09T01:29:03.501Z,38.93
2024-05-09T01:30:07.050Z,38.93
2024-05-09T01:31:04.503Z,38.94
2024-05-09T01:32:03.584Z,38.92
2024-05-09T01:33:04.026Z,38.92
2024-05-09T01:34:03.554Z,38.95
2024-05-09T01:35:03.562Z,38.92
2024-05-09T01:36:03.481Z,38.93
2024-05-09T01:37:03.490Z,38.91
2024-05-09T01:38:03.666Z,38.93
2024-05-09T01:39:03.458Z,38.93
2024-05-09T01:40:03.682Z,38.91
2024-05-09T01:41:03.517Z,38.91
2024-05-09T01:42:03.510Z,38.92
2024-05-09T01:43:03.528Z,38.92
2024-05-09T01:44:03.551Z,38.92
2024-05-09T01:45:03.588Z,38.93
2024-05-09T01:46:03.658Z,38.90
2024-05-09T01:47:03.695Z,38.90
2024-05-09T01:48:04.114Z,38.90
2024-05-09T01:49:03.787Z,38.94
2024-05-09T01:50:05.008Z,38.92
2024-05-09T01:51:03.858Z,38.89
2024-05-09T01:52:03.790Z,38.90
2024-05-09T01:53:03.819Z,38.92
2024-05-09T01:54:03.801Z,38.89
2024-05-09T01:55:06.421Z,38.92
2024-05-09T01:56:03.778Z,38.91
2024-05-09T01:57:03.762Z,38.90
2024-05-09T01:58:03.800Z,38.92
2024-05-09T01:59:03.837Z,38.90
2024-05-09T02:00:03.901Z,38.91
2024-05-09T02:01:03.875Z,38.91
2024-05-09T02:02:04.123Z,38.89
2024-05-09T02:03:04.092Z,38.88
2024-05-09T02:04:03.995Z,38.90
2024-05-09T02:05:03.950Z,38.89
2024-05-09T02:06:03.934Z,38.89
2024-05-09T02:07:03.760Z,38.89
2024-05-09T02:08:03.891Z,38.90
2024-05-09T02:09:03.756Z,38.88
2024-05-09T02:10:08.544Z,38.87
2024-05-09T02:11:04.887Z,38.91
2024-05-09T02:12:03.851Z,38.89
2024-05-09T02:13:03.793Z,38.89
2024-05-09T02:14:03.895Z,38.87
2024-05-09T02:15:03.782Z,38.88
2024-05-09T02:16:03.820Z,38.88
2024-05-09T02:17:03.925Z,38.88
2024-05-09T02:18:03.938Z,38.89
2024-05-09T02:19:03.956Z,38.89
2024-05-09T02:20:05.989Z,38.87
2024-05-09T02:21:04.091Z,38.87
2024-05-09T02:22:03.835Z,38.88
2024-05-09T02:23:04.736Z,38.90
2024-05-09T02:24:03.935Z,38.88
2024-05-09T02:25:03.983Z,38.85
2024-05-09T02:26:04.047Z,38.87
2024-05-09T02:27:04.086Z,38.87
2024-05-09T02:28:04.084Z,38.87
2024-05-09T02:29:04.173Z,38.87
2024-05-09T02:30:09.881Z,38.87
2024-05-09T02:31:05.242Z,38.88
2024-05-09T02:32:04.282Z,38.88
2024-05-09T02:33:04.367Z,38.87
2024-05-09T02:34:04.409Z,38.86
2024-05-09T02:35:04.220Z,38.87
2024-05-09T02:36:04.197Z,38.85
2024-05-09T02:37:04.206Z,38.86
2024-05-09T02:38:04.238Z,38.86
2024-05-09T02:39:04.216Z,38.85
2024-05-09T02:40:05.621Z,38.86
2024-05-09T02:41:04.273Z,38.86
2024-05-09T02:42:04.176Z,38.87
2024-05-09T02:43:04.256Z,38.86
2024-05-09T02:44:04.294Z,38.86
2024-05-09T02:45:04.303Z,38.84
2024-05-09T02:46:04.375Z,38.85
2024-05-09T02:47:04.434Z,38.85
2024-05-09T02:48:04.592Z,38.86
2024-05-09T02:49:04.647Z,38.87
2024-05-09T02:50:05.986Z,38.85
2024-05-09T02:51:04.714Z,38.85
2024-05-09T02:52:04.634Z,38.85
2024-05-09T02:53:04.857Z,38.86
2024-05-09T02:54:04.709Z,38.85
2024-05-09T02:55:04.778Z,38.86
2024-05-09T02:56:04.850Z,38.86
2024-05-09T02:57:04.842Z,38.86
2024-05-09T02:58:04.902Z,38.85
2024-05-09T02:59:04.942Z,38.85
2024-05-09T03:00:06.183Z,38.85
2024-05-09T03:01:05.024Z,38.85
2024-05-09T03:02:05.022Z,38.84
2024-05-09T03:03:05.195Z,38.84
2024-05-09T03:04:05.061Z,38.83
2024-05-09T03:05:05.029Z,38.82
2024-05-09T03:06:04.997Z,38.86
2024-05-09T03:07:04.959Z,38.85
2024-05-09T03:08:05.102Z,38.83
2024-05-09T03:09:04.964Z,38.84
2024-05-09T03:10:11.803Z,38.83
2024-05-09T03:11:06.069Z,38.86
2024-05-09T03:12:05.041Z,38.84
2024-05-09T03:13:04.980Z,38.84
2024-05-09T03:14:05.018Z,38.84
2024-05-09T03:15:04.968Z,38.85
2024-05-09T03:16:04.982Z,38.84
2024-05-09T03:17:05.014Z,38.83
2024-05-09T03:18:05.181Z,38.82
2024-05-09T03:19:05.087Z,38.84
2024-05-09T03:20:07.003Z,38.83
2024-05-09T03:21:05.085Z,38.84
2024-05-09T03:22:05.026Z,38.83
2024-05-09T03:23:05.591Z,38.84
2024-05-09T03:24:04.992Z,38.83
2024-05-09T03:25:04.985Z,38.83
2024-05-09T03:26:05.168Z,38.85
2024-05-09T03:27:05.025Z,38.85
2024-05-09T03:28:05.004Z,38.83
2024-05-09T03:29:05.049Z,38.84
2024-05-09T03:30:07.343Z,38.82
2024-05-09T03:31:05.128Z,38.84
2024-05-09T03:32:05.283Z,38.83
2024-05-09T03:33:05.372Z,38.82
2024-05-09T03:34:05.400Z,38.83
2024-05-09T03:35:05.332Z,38.81
2024-05-09T03:36:08.222Z,38.81
2024-05-09T03:37:05.365Z,38.83
2024-05-09T03:38:05.378Z,38.83
2024-05-09T03:39:05.348Z,38.83
2024-05-09T03:40:09.303Z,38.82
2024-05-09T03:41:06.411Z,38.84
2024-05-09T03:42:05.328Z,38.83
2024-05-09T03:43:05.337Z,38.83
2024-05-09T03:44:05.349Z,38.82
2024-05-09T03:45:05.345Z,38.81
2024-05-09T03:46:05.387Z,38.84
2024-05-09T03:47:05.378Z,38.81
2024-05-09T03:48:05.555Z,38.81
2024-05-09T03:49:05.448Z,38.81
2024-05-09T03:50:05.930Z,38.81
2024-05-09T03:51:05.513Z,38.83
2024-05-09T03:52:05.367Z,38.81
2024-05-09T03:53:05.497Z,38.81
2024-05-09T03:54:05.343Z,38.80
2024-05-09T03:55:05.357Z,38.81
2024-05-09T03:56:05.395Z,38.82
2024-05-09T03:57:05.373Z,38.83
2024-05-09T03:58:05.393Z,38.83
2024-05-09T03:59:05.510Z,38.80
2024-05-09T04:00:07.482Z,38.81
2024-05-09T04:01:05.481Z,38.82
2024-05-09T04:02:05.430Z,38.82
2024-05-09T04:03:06.667Z,38.81
2024-05-09T04:04:05.430Z,38.70
2024-05-09T04:05:05.393Z,38.62
2024-05-09T04:06:05.370Z,38.49
2024-05-09T04:07:05.372Z,38.39
2024-05-09T04:08:05.423Z,38.32
2024-05-09T04:09:05.369Z,38.28
2024-05-09T04:10:06.847Z,38.29
2024-05-09T04:11:05.543Z,38.31
2024-05-09T04:12:05.543Z,38.42
2024-05-09T04:13:05.501Z,38.34
2024-05-09T04:14:05.435Z,38.39
2024-05-09T04:15:05.393Z,38.35
2024-05-09T04:16:05.370Z,38.47
2024-05-09T04:17:05.414Z,38.42
2024-05-09T04:18:05.600Z,38.34
2024-05-09T04:19:05.452Z,38.38
2024-05-09T04:20:08.317Z,38.42
2024-05-09T04:21:05.553Z,38.34
2024-05-09T04:22:05.361Z,38.34
2024-05-09T04:23:05.575Z,38.40
2024-05-09T04:24:05.383Z,38.33
2024-05-09T04:25:05.388Z,38.39
2024-05-09T04:26:05.401Z,38.29
2024-05-09T04:27:05.402Z,38.33
2024-05-09T04:28:05.658Z,38.31
2024-05-09T04:29:05.606Z,38.28
2024-05-09T04:30:08.007Z,38.25
2024-05-09T04:31:06.396Z,38.21
2024-05-09T04:32:13.750Z,38.29
2024-05-09T04:33:14.694Z,38.36
2024-05-09T04:34:13.692Z,38.41
2024-05-09T04:35:13.704Z,38.39
2024-05-09T04:36:13.626Z,38.42
2024-05-09T04:37:13.763Z,38.41
2024-05-09T04:38:14.406Z,38.39
2024-05-09T04:39:13.638Z,38.38
2024-05-09T04:40:24.107Z,38.35
2024-05-09T04:41:14.671Z,38.39
2024-05-09T04:42:13.623Z,38.36
2024-05-09T04:43:13.788Z,38.33
2024-05-09T04:44:13.691Z,38.35
2024-05-09T04:45:13.647Z,38.32
2024-05-09T04:46:13.642Z,38.32
2024-05-09T04:47:13.863Z,38.31
2024-05-09T04:48:13.868Z,38.34
2024-05-09T04:49:13.841Z,38.32
2024-05-09T04:50:21.161Z,38.31
2024-05-09T04:51:14.700Z,38.31
2024-05-09T04:52:13.654Z,38.32
2024-05-09T04:53:13.682Z,38.34
2024-05-09T04:54:25.801Z,38.31
2024-05-09T04:55:14.675Z,38.33
2024-05-09T04:56:13.779Z,38.34
2024-05-09T04:57:13.664Z,38.35
2024-05-09T04:58:13.676Z,38.35
2024-05-09T04:59:13.698Z,38.35
2024-05-09T05:00:15.014Z,38.32
2024-05-09T05:01:14.734Z,38.36
2024-05-09T05:02:13.716Z,38.34
2024-05-09T05:03:15.806Z,38.36
2024-05-09T05:04:13.776Z,38.33
2024-05-09T05:05:13.781Z,38.37
2024-05-09T05:06:13.671Z,38.33
2024-05-09T05:07:13.670Z,38.35
2024-05-09T05:08:14.169Z,38.36
2024-05-09T05:09:13.698Z,38.37
2024-05-09T05:10:21.402Z,38.37
2024-05-09T05:11:14.770Z,38.35
2024-05-09T05:12:13.778Z,38.35
2024-05-09T05:13:13.704Z,38.33
2024-05-09T05:14:13.689Z,38.35
2024-05-09T05:15:13.703Z,38.34
2024-05-09T05:16:13.705Z,38.36
2024-05-09T05:17:13.727Z,38.35
2024-05-09T05:18:13.784Z,38.34
2024-05-09T05:19:16.942Z,38.36
2024-05-09T05:20:17.896Z,38.36
2024-05-09T05:21:14.761Z,38.38
2024-05-09T05:22:13.755Z,38.34
2024-05-09T05:23:14.031Z,38.35
2024-05-09T05:24:13.682Z,38.37
2024-05-09T05:25:13.699Z,38.35
2024-05-09T05:26:13.747Z,38.35
2024-05-09T05:27:13.720Z,38.36
2024-05-09T05:28:13.727Z,38.36
2024-05-09T05:29:13.740Z,38.35
2024-05-09T05:30:21.123Z,38.34
2024-05-09T05:31:14.755Z,38.37
2024-05-09T05:32:13.845Z,38.36
2024-05-09T05:33:13.908Z,38.36
2024-05-09T05:34:13.834Z,38.37
2024-05-09T05:35:13.799Z,38.36
2024-05-09T05:36:13.701Z,38.36
2024-05-09T05:37:13.738Z,38.35
2024-05-09T05:38:13.780Z,38.35
2024-05-09T05:39:13.802Z,38.34
2024-05-09T05:40:24.600Z,38.35
2024-05-09T05:41:14.790Z,38.38
2024-05-09T05:42:13.740Z,38.37
2024-05-09T05:43:13.721Z,38.37
2024-05-09T05:44:13.762Z,38.35
2024-05-09T05:45:13.753Z,38.35
2024-05-09T05:46:13.747Z,38.37
2024-05-09T05:47:13.815Z,38.38
2024-05-09T05:48:14.158Z,38.36
2024-05-09T05:49:13.947Z,38.36
2024-05-09T05:50:23.792Z,38.36
2024-05-09T05:51:14.866Z,38.40
2024-05-09T05:52:13.755Z,38.35
2024-05-09T05:53:13.953Z,38.37
2024-05-09T05:54:13.707Z,38.37
2024-05-09T05:55:13.771Z,38.38
2024-05-09T05:56:13.814Z,38.39
2024-05-09T05:57:13.800Z,38.38
2024-05-09T05:58:13.740Z,38.37
2024-05-09T05:59:15.506Z,38.35
2024-05-09T06:00:21.574Z,38.36
2024-05-09T06:01:14.821Z,38.36
2024-05-09T06:02:13.941Z,38.37
2024-05-09T06:03:14.403Z,38.38
2024-05-09T06:04:13.795Z,38.37
2024-05-09T06:05:13.926Z,38.37
2024-05-09T06:06:13.810Z,38.36
2024-05-09T06:07:13.754Z,38.37
2024-05-09T06:08:14.008Z,38.35
2024-05-09T06:09:13.764Z,38.37
2024-05-09T06:10:21.012Z,38.37
2024-05-09T06:11:14.903Z,38.35
2024-05-09T06:12:13.939Z,38.34
2024-05-09T06:13:14.479Z,38.36
2024-05-09T06:14:13.957Z,38.36
2024-05-09T06:15:13.818Z,38.37
2024-05-09T06:16:13.821Z,38.36
2024-05-09T06:17:13.912Z,38.35
2024-05-09T06:18:14.159Z,38.34
2024-05-09T06:19:14.065Z,38.33
2024-05-09T06:20:20.593Z,38.33
2024-05-09T06:21:14.899Z,38.35
2024-05-09T06:22:13.815Z,38.34
2024-05-09T06:23:13.854Z,38.33
2024-05-09T06:24:13.882Z,38.33
2024-05-09T06:25:13.901Z,38.31
2024-05-09T06:26:13.894Z,38.31
2024-05-09T06:27:13.878Z,38.32
2024-05-09T06:28:13.944Z,38.30
2024-05-09T06:29:13.917Z,38.31
2024-05-09T06:30:24.922Z,38.30
2024-05-09T06:31:14.794Z,38.31
2024-05-09T06:32:14.035Z,38.28
2024-05-09T06:33:15.788Z,38.29
2024-05-09T06:34:13.835Z,38.27
2024-05-09T06:35:13.823Z,38.25
2024-05-09T06:36:13.816Z,38.21
2024-05-09T06:37:13.796Z,38.20
2024-05-09T06:38:13.890Z,38.15
2024-05-09T06:39:13.799Z,38.13
2024-05-09T06:40:17.458Z,38.13
2024-05-09T06:41:13.943Z,38.12
2024-05-09T06:42:13.787Z,38.10
2024-05-09T06:43:14.044Z,38.08
2024-05-09T06:44:13.840Z,38.09
2024-05-09T06:45:13.821Z,38.07
2024-05-09T06:46:13.819Z,38.08
2024-05-09T06:47:13.911Z,38.06
2024-05-09T06:48:14.083Z,38.07
2024-05-09T06:49:14.016Z,38.05
2024-05-09T06:50:23.229Z,38.04
2024-05-09T06:51:14.945Z,38.05
2024-05-09T06:52:13.786Z,38.03
2024-05-09T06:53:13.833Z,38.01
2024-05-09T06:54:13.808Z,37.98
2024-05-09T06:55:13.817Z,37.97
2024-05-09T06:56:13.866Z,37.95
2024-05-09T06:57:13.816Z,37.95
2024-05-09T06:58:13.847Z,37.92
2024-05-09T06:59:13.846Z,37.91
2024-05-09T07:00:22.670Z,37.91
2024-05-09T07:01:14.891Z,37.89
2024-05-09T07:02:13.887Z,37.88
2024-05-09T07:03:16.516Z,37.87
2024-05-09T07:04:13.885Z,37.88
2024-05-09T07:05:13.938Z,37.86
2024-05-09T07:06:13.868Z,37.85
2024-05-09T07:07:13.827Z,37.84
2024-05-09T07:08:14.105Z,37.83
2024-05-09T07:09:13.827Z,37.82
2024-05-09T07:10:21.685Z,37.81
2024-05-09T07:11:14.890Z,37.86
2024-05-09T07:12:14.045Z,37.82
2024-05-09T07:13:14.372Z,37.83
2024-05-09T07:14:13.912Z,37.83
2024-05-09T07:15:13.859Z,37.82
2024-05-09T07:16:13.854Z,37.83
2024-05-09T07:17:13.994Z,37.81
2024-05-09T07:18:14.326Z,37.84
2024-05-09T07:19:13.960Z,37.79
2024-05-09T07:20:23.108Z,37.82
2024-05-09T07:21:14.934Z,37.83
2024-05-09T07:22:13.842Z,37.84
2024-05-09T07:23:14.507Z,37.80
2024-05-09T07:24:13.847Z,37.81
2024-05-09T07:25:13.933Z,37.80
2024-05-09T07:26:13.934Z,37.83
2024-05-09T07:27:13.859Z,37.81
2024-05-09T07:28:13.906Z,37.81
2024-05-09T07:29:13.880Z,37.82
2024-05-09T07:30:20.331Z,37.81
2024-05-09T07:31:14.865Z,37.82
2024-05-09T07:32:13.926Z,37.79
2024-05-09T07:33:13.924Z,37.79
2024-05-09T07:34:14.061Z,37.79
2024-05-09T07:35:14.010Z,37.79
2024-05-09T07:36:13.878Z,37.80
2024-05-09T07:37:13.890Z,37.79
2024-05-09T07:38:13.972Z,37.77
2024-05-09T07:39:13.891Z,37.77
2024-05-09T07:40:24.107Z,37.77
2024-05-09T07:41:14.969Z,37.78
2024-05-09T07:42:13.879Z,37.76
2024-05-09T07:43:14.068Z,37.75
2024-05-09T07:44:13.925Z,37.75
2024-05-09T07:45:29.911Z,37.75
2024-05-09T07:48:28.288Z,37.73
2024-05-09T07:49:45.249Z,37.73
2024-05-09T07:53:29.739Z,37.72
2024-05-09T07:53:37.782Z,37.69
2024-05-09T07:54:15.215Z,37.71
2024-05-09T07:55:14.018Z,37.69
2024-05-09T07:56:14.289Z,37.68
2024-05-09T07:57:14.064Z,37.68
2024-05-09T07:58:13.943Z,37.66
2024-05-09T07:59:13.998Z,37.66
2024-05-09T08:00:17.356Z,37.67
2024-05-09T08:01:15.195Z,37.68
2024-05-09T08:02:14.043Z,37.67
2024-05-09T08:03:13.955Z,37.66
2024-05-09T08:04:13.956Z,37.64
2024-05-09T08:05:14.140Z,37.64
2024-05-09T08:06:14.074Z,37.61
2024-05-09T08:07:14.021Z,37.63
2024-05-09T08:08:13.969Z,37.61
2024-05-09T08:09:19.450Z,37.60
2024-05-09T08:10:19.148Z,37.60
2024-05-09T08:11:15.011Z,37.61
2024-05-09T08:12:13.963Z,37.61
2024-05-09T08:13:13.985Z,37.62
2024-05-09T08:14:14.003Z,37.60
2024-05-09T08:15:13.982Z,37.59
2024-05-09T08:16:14.122Z,37.58
2024-05-09T08:17:14.001Z,37.58
2024-05-09T08:18:14.038Z,37.58
2024-05-09T08:19:14.112Z,37.58
2024-05-09T08:20:22.841Z,37.57
2024-05-09T08:21:15.040Z,37.58
2024-05-09T08:22:14.143Z,37.58
2024-05-09T08:23:13.951Z,37.57
2024-05-09T08:24:13.958Z,37.57
2024-05-09T08:25:14.524Z,37.55
2024-05-09T08:26:14.046Z,37.54
2024-05-09T08:27:13.993Z,37.54
2024-05-09T08:28:14.274Z,37.56
2024-05-09T08:29:13.963Z,37.55
2024-05-09T08:30:21.852Z,37.55
2024-05-09T08:31:15.256Z,37.54
2024-05-09T08:32:14.025Z,37.53
2024-05-09T08:33:14.015Z,37.53
2024-05-09T08:34:14.215Z,37.52
2024-05-09T08:35:13.960Z,37.51
2024-05-09T08:36:13.981Z,37.52
2024-05-09T08:38:14.090Z,37.52
2024-05-09T08:39:14.002Z,37.51
2024-05-09T08:40:23.656Z,37.49
2024-05-09T08:41:15.143Z,37.51
2024-05-09T08:42:14.009Z,37.50
2024-05-09T08:43:14.185Z,37.49
2024-05-09T08:44:14.028Z,37.47
2024-05-09T08:45:14.052Z,37.48
2024-05-09T08:46:14.089Z,37.46
2024-05-09T08:47:14.053Z,37.46
2024-05-09T08:48:15.606Z,37.46
2024-05-09T08:49:14.161Z,37.45
2024-05-09T08:50:28.456Z,37.47
2024-05-09T08:51:15.359Z,37.45
2024-05-09T08:52:14.151Z,37.44
2024-05-09T08:53:14.131Z,37.42
2024-05-09T08:54:14.131Z,37.43
2024-05-09T08:55:14.226Z,37.41
2024-05-09T08:56:14.160Z,37.41
2024-05-09T08:57:14.150Z,37.40
2024-05-09T08:58:14.407Z,37.40
2024-05-09T08:59:14.270Z,37.39
2024-05-09T09:00:21.409Z,37.38
2024-05-09T09:01:15.438Z,37.37
2024-05-09T09:02:14.661Z,37.36
2024-05-09T09:03:14.367Z,37.37
2024-05-09T09:04:14.469Z,37.35
2024-05-09T09:05:14.519Z,37.36
2024-05-09T09:06:14.344Z,37.34
2024-05-09T09:07:14.455Z,37.34
2024-05-09T09:08:14.379Z,37.34
2024-05-09T09:09:14.464Z,37.35
2024-05-09T09:10:21.204Z,37.33
2024-05-09T09:11:15.571Z,37.35
2024-05-09T09:12:14.549Z,37.34
2024-05-09T09:13:14.786Z,37.34
2024-05-09T09:14:14.540Z,37.33
2024-05-09T09:15:14.559Z,37.34
2024-05-09T09:16:14.553Z,37.34
2024-05-09T09:17:14.549Z,37.31
2024-05-09T09:18:14.711Z,37.32
2024-05-09T09:19:14.714Z,37.33
2024-05-09T09:20:22.988Z,37.31
2024-05-09T09:21:15.717Z,37.35
2024-05-09T09:22:14.735Z,37.35
2024-05-09T09:23:14.716Z,37.33
2024-05-09T09:24:14.727Z,37.34
2024-05-09T09:25:14.737Z,37.33
2024-05-09T09:26:14.732Z,37.30
2024-05-09T09:27:14.690Z,37.32
2024-05-09T09:28:14.924Z,37.31
2024-05-09T09:29:14.810Z,37.33
2024-05-09T09:30:27.786Z,37.30
2024-05-09T09:31:15.900Z,37.34
2024-05-09T09:32:14.884Z,37.33
2024-05-09T09:33:14.930Z,37.31
2024-05-09T09:34:15.036Z,37.31
2024-05-09T09:35:14.850Z,37.30
2024-05-09T09:36:14.892Z,37.30
2024-05-09T09:37:14.880Z,37.30
2024-05-09T09:38:14.911Z,37.30
2024-05-09T09:39:14.976Z,37.31
2024-05-09T09:40:18.016Z,37.28
2024-05-09T09:41:15.189Z,37.30
2024-05-09T09:42:15.051Z,37.28
2024-05-09T09:43:15.399Z,37.28
2024-05-09T09:44:15.050Z,37.28
2024-05-09T09:45:15.066Z,37.29
2024-05-09T09:46:15.168Z,37.28
2024-05-09T09:47:15.201Z,37.26
2024-05-09T09:48:15.213Z,37.26
2024-05-09T09:49:15.196Z,37.27
2024-05-09T09:50:20.635Z,37.25
2024-05-09T09:51:16.140Z,37.26
2024-05-09T09:52:15.109Z,37.25
2024-05-09T09:53:15.054Z,37.25
2024-05-09T09:54:15.101Z,37.24
2024-05-09T09:55:15.115Z,37.24
2024-05-09T09:56:15.091Z,37.25
2024-05-09T09:57:15.083Z,37.25
2024-05-09T09:58:15.198Z,37.24
2024-05-09T09:59:15.221Z,37.25
2024-05-09T10:00:23.591Z,37.23
2024-05-09T10:01:16.459Z,37.24
2024-05-09T10:02:15.404Z,37.23
2024-05-09T10:03:15.328Z,37.24
2024-05-09T10:04:15.377Z,37.24
2024-05-09T10:05:15.361Z,37.23
2024-05-09T10:06:15.366Z,37.22
2024-05-09T10:07:15.313Z,37.23
2024-05-09T10:08:15.378Z,37.22
2024-05-09T10:09:15.412Z,37.23
2024-05-09T10:10:19.939Z,37.21
2024-05-09T10:11:16.574Z,37.23
2024-05-09T10:12:15.548Z,37.24
2024-05-09T10:13:15.696Z,37.23
2024-05-09T10:14:15.545Z,37.20
2024-05-09T10:15:15.522Z,37.23
2024-05-09T10:16:15.558Z,37.20
2024-05-09T10:17:15.550Z,37.21
2024-05-09T10:18:15.931Z,37.22
2024-05-09T10:19:15.842Z,37.23
2024-05-09T10:20:21.830Z,37.21
2024-05-09T10:21:16.673Z,37.22
2024-05-09T10:22:15.741Z,37.21
2024-05-09T10:23:15.650Z,37.22
2024-05-09T10:24:15.649Z,37.21
2024-05-09T10:25:15.861Z,37.22
2024-05-09T10:26:15.672Z,37.21
2024-05-09T10:27:15.681Z,37.22
2024-05-09T10:28:15.740Z,37.21
2024-05-09T10:29:15.752Z,37.21
2024-05-09T10:30:25.289Z,37.19
2024-05-09T10:31:16.917Z,37.22
2024-05-09T10:32:16.054Z,37.18
2024-05-09T10:33:16.000Z,37.20
2024-05-09T10:34:15.965Z,37.20
2024-05-09T10:35:15.837Z,37.20
2024-05-09T10:36:15.839Z,37.19
2024-05-09T10:37:16.022Z,37.20
2024-05-09T10:38:16.875Z,37.19
2024-05-09T10:39:16.027Z,37.18
2024-05-09T10:40:23.350Z,37.20
2024-05-09T10:41:17.062Z,37.19
2024-05-09T10:42:16.111Z,37.18
2024-05-09T10:43:16.239Z,37.19
2024-05-09T10:44:16.092Z,37.19
2024-05-09T10:45:16.155Z,37.19
2024-05-09T10:46:16.517Z,37.17
2024-05-09T10:47:16.083Z,37.19
2024-05-09T10:48:16.157Z,37.17
2024-05-09T10:49:16.423Z,37.18
2024-05-09T10:50:22.587Z,37.17
2024-05-09T10:51:17.228Z,37.19
2024-05-09T10:52:16.429Z,37.18
2024-05-09T10:53:16.222Z,37.18
2024-05-09T10:54:16.278Z,37.17
2024-05-09T10:55:16.241Z,37.15
2024-05-09T10:56:16.438Z,37.18
2024-05-09T10:57:16.232Z,37.16
2024-05-09T10:58:16.335Z,37.15
2024-05-09T10:59:16.291Z,37.15
2024-05-09T11:00:26.962Z,37.13
2024-05-09T11:01:17.543Z,37.13
2024-05-09T11:02:16.469Z,37.15
2024-05-09T11:03:16.423Z,37.12
2024-05-09T11:04:16.759Z,37.14
2024-05-09T11:05:16.534Z,37.12
2024-05-09T11:06:16.373Z,37.12
2024-05-09T11:07:16.479Z,37.12
2024-05-09T11:08:16.389Z,37.13
2024-05-09T11:09:16.446Z,37.10
2024-05-09T11:10:24.855Z,37.13
2024-05-09T11:11:17.544Z,37.12
2024-05-09T11:12:16.458Z,37.10
2024-05-09T11:13:16.541Z,37.11
2024-05-09T11:14:16.446Z,37.11
2024-05-09T11:15:16.465Z,37.09
2024-05-09T11:16:17.743Z,37.09
2024-05-09T11:17:16.482Z,37.08
2024-05-09T11:18:16.732Z,37.09
2024-05-09T11:19:16.642Z,37.06
2024-05-09T11:20:22.961Z,37.09
2024-05-09T11:21:18.425Z,37.09
2024-05-09T11:22:16.641Z,37.08
2024-05-09T11:23:16.524Z,37.06
2024-05-09T11:24:16.537Z,37.07
2024-05-09T11:25:16.619Z,37.06
2024-05-09T11:26:16.533Z,37.03
2024-05-09T11:27:16.553Z,37.01
2024-05-09T11:28:16.654Z,37.02
2024-05-09T11:29:19.507Z,36.98
2024-05-09T11:30:23.821Z,36.97
2024-05-09T11:31:17.887Z,36.98
2024-05-09T11:32:16.716Z,36.96
2024-05-09T11:33:16.681Z,37.00
2024-05-09T11:34:16.799Z,36.99
2024-05-09T11:35:16.668Z,36.99
2024-05-09T11:36:16.572Z,36.97
2024-05-09T11:37:16.694Z,36.98
2024-05-09T11:38:16.613Z,36.98
2024-05-09T11:39:16.609Z,36.97
2024-05-09T11:40:24.386Z,36.97
2024-05-09T11:41:17.655Z,36.94
2024-05-09T11:42:16.649Z,36.90
2024-05-09T11:43:16.859Z,36.90
2024-05-09T11:44:16.663Z,36.92
2024-05-09T11:45:16.691Z,36.92
2024-05-09T11:46:16.816Z,36.90
2024-05-09T11:47:16.697Z,36.89
2024-05-09T11:48:16.842Z,36.90
2024-05-09T11:49:16.948Z,36.88
2024-05-09T11:50:26.701Z,36.86
2024-05-09T11:51:17.632Z,36.87
2024-05-09T11:52:16.759Z,36.84
2024-05-09T11:53:16.685Z,36.86
2024-05-09T11:54:16.699Z,36.84
2024-05-09T11:55:16.938Z,36.81
2024-05-09T11:56:16.637Z,36.81
2024-05-09T11:57:16.650Z,36.78
2024-05-09T11:58:16.754Z,36.79
2024-05-09T11:59:16.674Z,36.79
2024-05-09T12:00:24.605Z,36.76
2024-05-09T12:01:17.718Z,36.77
2024-05-09T12:02:17.047Z,36.78
2024-05-09T12:03:16.732Z,36.76
2024-05-09T12:04:16.924Z,36.75
2024-05-09T12:05:16.984Z,36.74
2024-05-09T12:06:16.749Z,36.74
2024-05-09T12:07:16.842Z,36.74
2024-05-09T12:08:16.750Z,36.72
2024-05-09T12:09:16.698Z,36.72
2024-05-09T12:10:22.173Z,36.73
2024-05-09T12:11:17.787Z,36.72
2024-05-09T12:12:16.704Z,36.73
2024-05-09T12:13:16.851Z,36.72
2024-05-09T12:14:16.740Z,36.72
2024-05-09T12:15:16.968Z,36.70
2024-05-09T12:16:16.928Z,36.70
2024-05-09T12:17:16.760Z,36.69
2024-05-09T12:18:16.795Z,36.67
2024-05-09T12:19:16.807Z,36.67
2024-05-09T12:20:25.015Z,36.66
2024-05-09T12:21:17.744Z,36.66
2024-05-09T12:22:16.905Z,36.66
2024-05-09T12:23:16.736Z,36.66
2024-05-09T12:24:18.580Z,36.65
2024-05-09T12:25:16.839Z,36.64
2024-05-09T12:26:16.741Z,36.62
2024-05-09T12:27:16.778Z,36.62
2024-05-09T12:28:16.954Z,36.62
2024-05-09T12:29:16.745Z,36.60
2024-05-09T12:30:24.687Z,36.62
2024-05-09T12:31:17.792Z,36.62
2024-05-09T12:32:16.866Z,36.62
2024-05-09T12:33:16.906Z,36.64
2024-05-09T12:34:16.883Z,36.62
2024-05-09T12:35:16.773Z,36.62
2024-05-09T12:36:16.799Z,36.62
2024-05-09T12:37:16.815Z,36.61
2024-05-09T12:38:16.735Z,36.61
2024-05-09T12:39:16.750Z,36.62
2024-05-09T12:40:26.198Z,36.61
2024-05-09T12:41:17.774Z,36.64
2024-05-09T12:42:26.524Z,36.63
2024-05-09T12:43:17.859Z,36.64
2024-05-09T12:44:16.792Z,36.62
2024-05-09T12:45:16.779Z,36.62
2024-05-09T12:46:16.829Z,36.62
2024-05-09T12:47:16.845Z,36.61
2024-05-09T12:48:16.962Z,36.63
2024-05-09T12:49:18.874Z,36.62
2024-05-09T12:50:25.059Z,36.65
2024-05-09T12:51:17.811Z,36.64
2024-05-09T12:52:16.922Z,36.63
2024-05-09T12:53:16.809Z,36.63
2024-05-09T12:54:16.809Z,36.62
2024-05-09T12:55:16.900Z,36.63
2024-05-09T12:56:16.817Z,36.61
2024-05-09T12:57:16.836Z,36.60